sensor_id;sensor_type;location;lat;lon;timestamp;pressure;altitude;pressure_sealevel;temperature;humidity
50592;BME280;36548;50.506;30.834;2022-11-06T00:00:47;101010.44;;;7.10;69.19
50592;BME280;36548;50.506;30.834;2022-11-06T00:01:57;101027.77;;;6.98;68.90
50592;BME280;36548;50.506;30.834;2022-11-06T00:03:07;101026.09;;;6.95;68.58
50592;BME280;36548;50.506;30.834;2022-11-06T00:04:23;101023.42;;;6.95;68.59
50592;BME280;36548;50.506;30.834;2022-11-06T00:05:32;101023.19;;;6.78;68.64
50592;BME280;36548;50.506;30.834;2022-11-06T00:07:06;101026.77;;;6.77;69.07
50592;BME280;36548;50.506;30.834;2022-11-06T00:08:21;101035.45;;;6.58;69.31
50592;BME280;36548;50.506;30.834;2022-11-06T00:09:33;101023.80;;;6.61;69.67
50592;BME280;36548;50.506;30.834;2022-11-06T00:10:42;101025.09;;;6.49;69.58
50592;BME280;36548;50.506;30.834;2022-11-06T00:11:57;101033.87;;;6.53;69.69
50592;BME280;36548;50.506;30.834;2022-11-06T00:13:06;101029.87;;;6.39;69.74
50592;BME280;36548;50.506;30.834;2022-11-06T00:14:23;101021.65;;;6.45;69.96
50592;BME280;36548;50.506;30.834;2022-11-06T00:15:33;101023.08;;;6.30;70.39
50592;BME280;36548;50.506;30.834;2022-11-06T00:16:48;101016.55;;;6.39;70.36
50592;BME280;36548;50.506;30.834;2022-11-06T00:17:57;101019.46;;;6.31;70.13
50592;BME280;36548;50.506;30.834;2022-11-06T00:19:07;101019.69;;;6.25;70.21
50592;BME280;36548;50.506;30.834;2022-11-06T00:20:22;101031.02;;;6.32;70.59
50592;BME280;36548;50.506;30.834;2022-11-06T00:21:31;101028.66;;;6.23;71.00
50592;BME280;36548;50.506;30.834;2022-11-06T00:22:41;101026.60;;;6.31;70.97
50592;BME280;36548;50.506;30.834;2022-11-06T00:23:58;101022.59;;;6.44;70.90
50592;BME280;36548;50.506;30.834;2022-11-06T00:25:09;101030.73;;;6.40;70.93
50592;BME280;36548;50.506;30.834;2022-11-06T00:26:21;101019.76;;;6.49;70.68
50592;BME280;36548;50.506;30.834;2022-11-06T00:27:38;101020.04;;;6.67;70.75
50592;BME280;36548;50.506;30.834;2022-11-06T00:28:49;101021.75;;;6.68;70.71
50592;BME280;36548;50.506;30.834;2022-11-06T00:29:58;101016.04;;;6.78;70.08
50592;BME280;36548;50.506;30.834;2022-11-06T00:31:23;101010.96;;;6.96;69.60
50592;BME280;36548;50.506;30.834;2022-11-06T00:32:32;101019.09;;;6.93;69.61
50592;BME280;36548;50.506;30.834;2022-11-06T00:51:17;101005.60;;;6.72;69.84
50592;BME280;36548;50.506;30.834;2022-11-06T00:52:28;101009.42;;;6.65;70.08
50592;BME280;36548;50.506;30.834;2022-11-06T00:53:45;100993.50;;;6.87;69.52
50592;BME280;36548;50.506;30.834;2022-11-06T00:54:55;100992.08;;;6.77;69.33
50592;BME280;36548;50.506;30.834;2022-11-06T00:56:15;100985.59;;;6.84;69.51
50592;BME280;36548;50.506;30.834;2022-11-06T00:57:25;101004.83;;;6.69;69.61
50592;BME280;36548;50.506;30.834;2022-11-06T00:58:41;100996.56;;;6.76;69.13
50592;BME280;36548;50.506;30.834;2022-11-06T00:59:50;100991.02;;;6.57;69.19
50592;BME280;36548;50.506;30.834;2022-11-06T01:01:09;100990.04;;;6.60;69.34
50592;BME280;36548;50.506;30.834;2022-11-06T01:02:19;100997.77;;;6.42;69.83
50592;BME280;36548;50.506;30.834;2022-11-06T01:03:30;101002.34;;;6.39;69.88
50592;BME280;36548;50.506;30.834;2022-11-06T01:04:46;100996.84;;;6.43;70.05
50592;BME280;36548;50.506;30.834;2022-11-06T01:07:21;100994.49;;;6.34;70.30
50592;BME280;36548;50.506;30.834;2022-11-06T01:08:32;101001.08;;;6.24;70.63
50592;BME280;36548;50.506;30.834;2022-11-06T01:09:48;101000.55;;;6.39;70.97
50592;BME280;36548;50.506;30.834;2022-11-06T01:10:58;100989.02;;;6.39;70.89
50592;BME280;36548;50.506;30.834;2022-11-06T01:12:15;100987.25;;;6.63;70.65
50592;BME280;36548;50.506;30.834;2022-11-06T01:13:26;100986.52;;;6.59;70.43
50592;BME280;36548;50.506;30.834;2022-11-06T01:14:42;100987.52;;;6.80;70.22
50592;BME280;36548;50.506;30.834;2022-11-06T01:15:52;100994.02;;;6.73;69.99
50592;BME280;36548;50.506;30.834;2022-11-06T01:17:13;100981.72;;;6.93;69.93
50592;BME280;36548;50.506;30.834;2022-11-06T01:18:23;100996.91;;;6.91;69.68
50592;BME280;36548;50.506;30.834;2022-11-06T01:19:31;100997.61;;;6.96;69.62
50592;BME280;36548;50.506;30.834;2022-11-06T01:20:47;100991.62;;;7.13;69.74
50592;BME280;36548;50.506;30.834;2022-11-06T01:21:57;100995.53;;;7.04;69.79
50592;BME280;36548;50.506;30.834;2022-11-06T01:23:07;100996.39;;;7.05;69.25
50592;BME280;36548;50.506;30.834;2022-11-06T01:24:24;100994.55;;;7.07;68.67
50592;BME280;36548;50.506;30.834;2022-11-06T01:25:35;101005.95;;;6.87;68.64
50592;BME280;36548;50.506;30.834;2022-11-06T01:27:09;100995.22;;;6.88;69.27
50592;BME280;36548;50.506;30.834;2022-11-06T01:28:20;100996.68;;;6.73;69.28
50592;BME280;36548;50.506;30.834;2022-11-06T01:29:30;100991.34;;;6.73;68.82
50592;BME280;36548;50.506;30.834;2022-11-06T01:30:40;101005.01;;;6.64;68.92
50592;BME280;36548;50.506;30.834;2022-11-06T01:31:56;100990.57;;;6.70;68.75
50592;BME280;36548;50.506;30.834;2022-11-06T01:33:05;100994.78;;;6.52;68.84
50592;BME280;36548;50.506;30.834;2022-11-06T01:34:15;101002.23;;;6.42;69.10
50592;BME280;36548;50.506;30.834;2022-11-06T01:35:31;100995.09;;;6.42;69.43
50592;BME280;36548;50.506;30.834;2022-11-06T01:36:43;101003.63;;;6.27;69.88
50592;BME280;36548;50.506;30.834;2022-11-06T01:38:01;100991.08;;;6.30;70.34
50592;BME280;36548;50.506;30.834;2022-11-06T01:39:11;100999.55;;;6.17;70.62
50592;BME280;36548;50.506;30.834;2022-11-06T01:40:28;101007.99;;;6.29;70.70
50592;BME280;36548;50.506;30.834;2022-11-06T01:42:59;100990.79;;;6.38;70.51
50592;BME280;36548;50.506;30.834;2022-11-06T01:45:53;100996.41;;;6.56;70.06
50592;BME280;36548;50.506;30.834;2022-11-06T01:47:13;100990.36;;;6.51;69.77
50592;BME280;36548;50.506;30.834;2022-11-06T01:48:25;100988.67;;;6.73;69.78
50592;BME280;36548;50.506;30.834;2022-11-06T01:49:37;100982.51;;;6.71;69.67
50592;BME280;36548;50.506;30.834;2022-11-06T01:50:55;100987.06;;;6.93;69.33
50592;BME280;36548;50.506;30.834;2022-11-06T01:52:08;100993.50;;;6.87;69.14
50592;BME280;36548;50.506;30.834;2022-11-06T01:53:25;100987.06;;;6.93;68.71
50592;BME280;36548;50.506;30.834;2022-11-06T01:54:36;100988.50;;;6.78;68.47
50592;BME280;36548;50.506;30.834;2022-11-06T01:55:56;100994.57;;;6.81;68.56
50592;BME280;36548;50.506;30.834;2022-11-06T01:57:05;100997.13;;;6.61;68.43
50592;BME280;36548;50.506;30.834;2022-11-06T01:58:23;100996.17;;;6.62;68.65
50592;BME280;36548;50.506;30.834;2022-11-06T01:59:36;100999.45;;;6.45;68.83
50592;BME280;36548;50.506;30.834;2022-11-06T02:00:52;100995.69;;;6.51;68.91
50592;BME280;36548;50.506;30.834;2022-11-06T02:02:02;100994.49;;;6.34;68.97
50592;BME280;36548;50.506;30.834;2022-11-06T02:03:13;101000.91;;;6.28;69.26
50592;BME280;36548;50.506;30.834;2022-11-06T02:04:25;101002.00;;;6.23;69.59
50592;BME280;36548;50.506;30.834;2022-11-06T02:05:42;100992.77;;;6.33;69.36
50592;BME280;36548;50.506;30.834;2022-11-06T02:06:52;100992.42;;;6.17;69.56
50592;BME280;36548;50.506;30.834;2022-11-06T02:08:02;100996.95;;;6.15;69.55
50592;BME280;36548;50.506;30.834;2022-11-06T02:09:12;100995.30;;;6.11;69.73
50592;BME280;36548;50.506;30.834;2022-11-06T02:10:28;100998.61;;;6.18;70.10
50592;BME280;36548;50.506;30.834;2022-11-06T02:11:50;101004.33;;;6.07;70.13
50592;BME280;36548;50.506;30.834;2022-11-06T02:15:00;101003.44;;;6.06;70.54
50592;BME280;36548;50.506;30.834;2022-11-06T02:17:56;100995.27;;;6.38;70.18
50592;BME280;36548;50.506;30.834;2022-11-06T02:27:09;101006.66;;;6.92;68.27
50592;BME280;36548;50.506;30.834;2022-11-06T02:31:19;101007.88;;;6.58;67.64
50592;BME280;36548;50.506;30.834;2022-11-06T02:32:44;100999.08;;;6.56;67.71
50592;BME280;36548;50.506;30.834;2022-11-06T02:33:58;101007.74;;;6.37;67.93
50592;BME280;36548;50.506;30.834;2022-11-06T02:35:34;101002.41;;;6.37;68.12
50592;BME280;36548;50.506;30.834;2022-11-06T02:36:53;101006.52;;;6.21;68.28
50592;BME280;36548;50.506;30.834;2022-11-06T02:38:15;101006.47;;;6.22;68.55
50592;BME280;36548;50.506;30.834;2022-11-06T02:39:27;101014.16;;;6.05;68.83
50592;BME280;36548;50.506;30.834;2022-11-06T02:40:41;101009.91;;;5.99;68.91
50592;BME280;36548;50.506;30.834;2022-11-06T02:42:02;101016.02;;;6.03;69.23
50592;BME280;36548;50.506;30.834;2022-11-06T02:43:13;101017.30;;;5.89;69.45
50592;BME280;36548;50.506;30.834;2022-11-06T02:44:26;101007.66;;;5.85;69.51
50592;BME280;36548;50.506;30.834;2022-11-06T02:47:26;101009.30;;;5.89;69.71
50592;BME280;36548;50.506;30.834;2022-11-06T02:48:43;101008.00;;;5.74;69.71
50592;BME280;36548;50.506;30.834;2022-11-06T02:50:12;101006.08;;;5.79;69.97
50592;BME280;36548;50.506;30.834;2022-11-06T02:51:24;101006.63;;;5.62;70.21
50592;BME280;36548;50.506;30.834;2022-11-06T02:52:44;101004.98;;;5.58;70.52
50592;BME280;36548;50.506;30.834;2022-11-06T02:54:01;101010.04;;;5.66;70.98
50592;BME280;36548;50.506;30.834;2022-11-06T02:55:16;101012.08;;;5.58;71.39
50592;BME280;36548;50.506;30.834;2022-11-06T02:56:37;101007.77;;;5.82;71.33
50592;BME280;36548;50.506;30.834;2022-11-06T02:57:49;101015.70;;;5.84;71.12
50592;BME280;36548;50.506;30.834;2022-11-06T02:59:11;101001.61;;;6.08;71.07
50592;BME280;36548;50.506;30.834;2022-11-06T03:00:22;101010.30;;;6.13;71.02
50592;BME280;36548;50.506;30.834;2022-11-06T03:01:42;101004.96;;;6.40;70.56
50592;BME280;36548;50.506;30.834;2022-11-06T03:03:03;101004.13;;;6.38;69.88
50592;BME280;36548;50.506;30.834;2022-11-06T03:04:23;101001.74;;;6.56;69.69
50592;BME280;36548;50.506;30.834;2022-11-06T03:07:05;101001.36;;;6.67;69.38
50592;BME280;36548;50.506;30.834;2022-11-06T03:09:34;101009.57;;;6.60;68.93
50592;BME280;36548;50.506;30.834;2022-11-06T03:10:53;101005.87;;;6.64;68.76
50592;BME280;36548;50.506;30.834;2022-11-06T03:12:11;101010.95;;;6.47;68.67
50592;BME280;36548;50.506;30.834;2022-11-06T03:17:17;100999.82;;;6.34;68.34
50592;BME280;36548;50.506;30.834;2022-11-06T03:18:33;101004.00;;;6.16;68.52
50592;BME280;36548;50.506;30.834;2022-11-06T03:19:55;101008.69;;;6.09;68.91
50592;BME280;36548;50.506;30.834;2022-11-06T03:21:18;101007.50;;;5.90;69.18
50592;BME280;36548;50.506;30.834;2022-11-06T03:25:32;101007.90;;;5.77;69.97
50592;BME280;36548;50.506;30.834;2022-11-06T03:26:47;101007.44;;;5.64;70.16
50592;BME280;36548;50.506;30.834;2022-11-06T03:29:35;101007.48;;;5.63;70.66
50592;BME280;36548;50.506;30.834;2022-11-06T03:33:28;101004.47;;;5.45;71.50
50592;BME280;36548;50.506;30.834;2022-11-06T03:34:41;101004.24;;;5.53;71.58
50592;BME280;36548;50.506;30.834;2022-11-06T03:38:58;100995.72;;;5.99;71.59
50592;BME280;36548;50.506;30.834;2022-11-06T03:40:18;101001.91;;;5.99;71.29
50592;BME280;36548;50.506;30.834;2022-11-06T03:41:36;101004.27;;;6.08;70.87
50592;BME280;36548;50.506;30.834;2022-11-06T03:42:48;101000.58;;;6.12;70.64
50592;BME280;36548;50.506;30.834;2022-11-06T03:44:08;100995.64;;;6.27;70.48
50592;BME280;36548;50.506;30.834;2022-11-06T03:45:22;100998.41;;;6.24;70.39
50592;BME280;36548;50.506;30.834;2022-11-06T03:46:42;100995.92;;;6.44;70.28
50592;BME280;36548;50.506;30.834;2022-11-06T03:49:24;101000.83;;;6.57;69.52
50592;BME280;36548;50.506;30.834;2022-11-06T03:50:39;100993.86;;;6.53;69.58
50592;BME280;36548;50.506;30.834;2022-11-06T03:52:00;100982.75;;;6.65;69.21
50592;BME280;36548;50.506;30.834;2022-11-06T03:53:18;100994.89;;;6.48;69.36
50592;BME280;36548;50.506;30.834;2022-11-06T03:56:07;100992.17;;;6.50;70.43
50592;BME280;36548;50.506;30.834;2022-11-06T03:59:00;100989.76;;;6.42;69.40
50592;BME280;36548;50.506;30.834;2022-11-06T04:00:13;100997.27;;;6.31;69.38
50592;BME280;36548;50.506;30.834;2022-11-06T04:01:34;100993.37;;;6.41;69.45
50592;BME280;36548;50.506;30.834;2022-11-06T04:02:51;100995.52;;;6.30;69.40
50592;BME280;36548;50.506;30.834;2022-11-06T04:04:15;100994.43;;;6.36;69.69
50592;BME280;36548;50.506;30.834;2022-11-06T04:05:24;100989.58;;;6.22;69.46
50592;BME280;36548;50.506;30.834;2022-11-06T04:08:09;100991.61;;;6.15;69.40
50592;BME280;36548;50.506;30.834;2022-11-06T04:09:41;100996.66;;;5.96;69.54
50592;BME280;36548;50.506;30.834;2022-11-06T04:11:19;101001.25;;;5.91;70.10
50592;BME280;36548;50.506;30.834;2022-11-06T04:12:55;101000.06;;;5.73;70.83
50592;BME280;36548;50.506;30.834;2022-11-06T04:14:26;101003.75;;;5.69;70.77
50592;BME280;36548;50.506;30.834;2022-11-06T04:17:06;100991.67;;;5.85;71.03
50592;BME280;36548;50.506;30.834;2022-11-06T04:18:17;100993.66;;;5.78;71.33
50592;BME280;36548;50.506;30.834;2022-11-06T04:19:49;100993.09;;;5.95;71.29
50592;BME280;36548;50.506;30.834;2022-11-06T04:20:56;100990.59;;;5.91;71.05
50592;BME280;36548;50.506;30.834;2022-11-06T04:24:22;101000.24;;;6.22;71.10
50592;BME280;36548;50.506;30.834;2022-11-06T04:26:04;100986.48;;;6.34;70.58
50592;BME280;36548;50.506;30.834;2022-11-06T04:27:48;100984.72;;;6.35;70.42
50592;BME280;36548;50.506;30.834;2022-11-06T04:30:20;101005.70;;;6.44;69.54
50592;BME280;36548;50.506;30.834;2022-11-06T04:36:18;100990.36;;;6.25;69.17
50592;BME280;36548;50.506;30.834;2022-11-06T04:39:05;100990.39;;;5.99;69.67
50592;BME280;36548;50.506;30.834;2022-11-06T07:34:31;101071.36;;;3.64;91.53
50592;BME280;36548;50.506;30.834;2022-11-06T07:35:48;101078.52;;;3.99;90.77
50592;BME280;36548;50.506;30.834;2022-11-06T07:36:58;101062.25;;;4.13;90.61
50592;BME280;36548;50.506;30.834;2022-11-06T07:38:08;101081.31;;;4.31;89.60
50592;BME280;36548;50.506;30.834;2022-11-06T07:39:23;101079.61;;;4.63;88.83
50592;BME280;36548;50.506;30.834;2022-11-06T07:40:33;101083.84;;;4.70;88.28
50592;BME280;36548;50.506;30.834;2022-11-06T07:41:44;101080.77;;;4.85;87.63
50592;BME280;36548;50.506;30.834;2022-11-06T07:43:06;101079.94;;;5.15;87.67
50592;BME280;36548;50.506;30.834;2022-11-06T07:44:15;101078.17;;;5.15;87.34
50592;BME280;36548;50.506;30.834;2022-11-06T07:45:32;101072.14;;;5.38;86.73
50592;BME280;36548;50.506;30.834;2022-11-06T07:46:41;101077.57;;;5.35;86.34
50592;BME280;36548;50.506;30.834;2022-11-06T07:47:56;101077.85;;;5.56;85.88
50592;BME280;36548;50.506;30.834;2022-11-06T07:49:08;101084.09;;;5.55;85.56
50592;BME280;36548;50.506;30.834;2022-11-06T07:50:19;101079.35;;;5.64;84.92
50592;BME280;36548;50.506;30.834;2022-11-06T07:51:28;101086.05;;;5.78;84.79
50592;BME280;36548;50.506;30.834;2022-11-06T07:52:44;101083.45;;;6.05;84.38
50592;BME280;36548;50.506;30.834;2022-11-06T07:53:53;101076.53;;;5.99;83.70
50592;BME280;36548;50.506;30.834;2022-11-06T07:55:08;101079.66;;;6.12;82.91
50592;BME280;36548;50.506;30.834;2022-11-06T07:56:18;101083.41;;;6.06;82.97
50592;BME280;36548;50.506;30.834;2022-11-06T07:57:35;101074.89;;;6.22;82.35
50592;BME280;36548;50.506;30.834;2022-11-06T07:58:45;101083.05;;;6.17;82.41
50592;BME280;36548;50.506;30.834;2022-11-06T08:00:01;101081.73;;;6.30;82.19
50592;BME280;36548;50.506;30.834;2022-11-06T08:01:15;101086.18;;;6.30;82.22
50592;BME280;36548;50.506;30.834;2022-11-06T08:02:31;101073.41;;;6.40;81.52
50592;BME280;36548;50.506;30.834;2022-11-06T08:03:40;101086.84;;;6.37;81.09
50592;BME280;36548;50.506;30.834;2022-11-06T08:04:55;101081.27;;;6.44;80.97
50592;BME280;36548;50.506;30.834;2022-11-06T08:06:07;101094.73;;;6.40;80.89
50592;BME280;36548;50.506;30.834;2022-11-06T08:07:23;101082.55;;;6.59;80.65
50592;BME280;36548;50.506;30.834;2022-11-06T08:08:32;101090.86;;;6.50;80.36
50592;BME280;36548;50.506;30.834;2022-11-06T08:09:47;101073.48;;;6.63;79.77
50592;BME280;36548;50.506;30.834;2022-11-06T08:11:08;101080.02;;;6.55;79.69
50592;BME280;36548;50.506;30.834;2022-11-06T08:12:26;101084.20;;;6.62;79.15
50592;BME280;36548;50.506;30.834;2022-11-06T08:13:35;101088.08;;;6.53;79.21
50592;BME280;36548;50.506;30.834;2022-11-06T08:14:50;101086.69;;;6.68;78.90
50592;BME280;36548;50.506;30.834;2022-11-06T08:16:05;101098.55;;;6.59;78.24
50592;BME280;36548;50.506;30.834;2022-11-06T08:17:21;101079.48;;;6.70;77.76
50592;BME280;36548;50.506;30.834;2022-11-06T08:18:30;101091.58;;;6.55;77.85
50592;BME280;36548;50.506;30.834;2022-11-06T08:19:45;101080.56;;;6.64;78.07
50592;BME280;36548;50.506;30.834;2022-11-06T08:20:54;101084.27;;;6.60;77.75
50592;BME280;36548;50.506;30.834;2022-11-06T08:22:09;101098.99;;;6.72;77.32
50592;BME280;36548;50.506;30.834;2022-11-06T08:23:19;101093.30;;;6.56;77.29
50592;BME280;36548;50.506;30.834;2022-11-06T08:24:34;101086.52;;;6.73;76.98
50592;BME280;36548;50.506;30.834;2022-11-06T08:25:44;101080.69;;;6.61;76.69
50592;BME280;36548;50.506;30.834;2022-11-06T08:27:00;101082.75;;;6.78;76.29
50592;BME280;36548;50.506;30.834;2022-11-06T08:28:10;101095.55;;;6.69;75.95
50592;BME280;36548;50.506;30.834;2022-11-06T08:29:25;101088.14;;;6.77;75.79
50592;BME280;36548;50.506;30.834;2022-11-06T08:30:34;101092.02;;;6.68;75.76
50592;BME280;36548;50.506;30.834;2022-11-06T08:31:49;101091.47;;;6.83;75.57
50592;BME280;36548;50.506;30.834;2022-11-06T08:33:04;101091.05;;;6.71;75.44
50592;BME280;36548;50.506;30.834;2022-11-06T08:34:20;101092.33;;;6.84;75.20
50592;BME280;36548;50.506;30.834;2022-11-06T08:35:29;101100.63;;;6.76;74.50
50592;BME280;36548;50.506;30.834;2022-11-06T08:37:05;101092.39;;;6.82;74.41
50592;BME280;36548;50.506;30.834;2022-11-06T08:38:14;101100.74;;;6.73;74.30
50592;BME280;36548;50.506;30.834;2022-11-06T08:39:30;101103.91;;;6.85;73.98
50592;BME280;36548;50.506;30.834;2022-11-06T08:40:39;101108.83;;;6.70;73.77
50592;BME280;36548;50.506;30.834;2022-11-06T08:41:55;101104.04;;;6.80;73.75
50592;BME280;36548;50.506;30.834;2022-11-06T08:43:07;101100.16;;;6.63;74.05
50592;BME280;36548;50.506;30.834;2022-11-06T08:44:24;101109.44;;;6.78;73.51
50592;BME280;36548;50.506;30.834;2022-11-06T08:45:40;101097.41;;;6.67;73.33
50592;BME280;36548;50.506;30.834;2022-11-06T08:46:56;101104.27;;;6.74;73.30
50592;BME280;36548;50.506;30.834;2022-11-06T08:48:06;101103.00;;;6.59;73.49
50592;BME280;36548;50.506;30.834;2022-11-06T08:49:22;101100.02;;;6.68;73.76
50592;BME280;36548;50.506;30.834;2022-11-06T08:50:31;101089.66;;;6.59;73.83
50592;BME280;36548;50.506;30.834;2022-11-06T08:51:46;101098.10;;;6.72;73.99
50592;BME280;36548;50.506;30.834;2022-11-06T08:52:56;101097.55;;;6.62;74.02
50592;BME280;36548;50.506;30.834;2022-11-06T08:54:12;101092.51;;;6.79;74.01
50592;BME280;36548;50.506;30.834;2022-11-06T08:55:22;101100.77;;;6.72;74.06
50592;BME280;36548;50.506;30.834;2022-11-06T08:56:38;101099.36;;;6.87;73.91
50592;BME280;36548;50.506;30.834;2022-11-06T08:57:48;101107.69;;;6.77;73.97
50592;BME280;36548;50.506;30.834;2022-11-06T08:59:08;101095.60;;;6.92;73.77
50592;BME280;36548;50.506;30.834;2022-11-06T09:00:17;101104.87;;;6.82;73.27
50592;BME280;36548;50.506;30.834;2022-11-06T09:01:32;101095.60;;;6.92;73.73
50592;BME280;36548;50.506;30.834;2022-11-06T09:02:42;101101.05;;;6.89;73.58
50592;BME280;36548;50.506;30.834;2022-11-06T09:03:58;101092.55;;;7.03;73.18
50592;BME280;36548;50.506;30.834;2022-11-06T09:05:08;101094.80;;;6.90;73.19
50592;BME280;36548;50.506;30.834;2022-11-06T09:06:24;101096.97;;;7.04;73.20
50592;BME280;36548;50.506;30.834;2022-11-06T09:07:34;101098.22;;;6.94;73.21
50592;BME280;36548;50.506;30.834;2022-11-06T09:08:49;101097.66;;;7.09;72.85
50592;BME280;36548;50.506;30.834;2022-11-06T09:09:58;101097.17;;;6.98;72.85
50592;BME280;36548;50.506;30.834;2022-11-06T09:11:13;101091.27;;;7.13;72.92
50592;BME280;36548;50.506;30.834;2022-11-06T09:12:21;101094.24;;;7.06;72.61
50592;BME280;36548;50.506;30.834;2022-11-06T09:13:36;101100.17;;;7.14;72.62
50592;BME280;36548;50.506;30.834;2022-11-06T09:14:45;101106.88;;;7.00;72.98
50592;BME280;36548;50.506;30.834;2022-11-06T09:16:00;101097.45;;;7.15;72.94
50592;BME280;36548;50.506;30.834;2022-11-06T09:17:11;101102.19;;;7.07;72.77
50592;BME280;36548;50.506;30.834;2022-11-06T09:18:20;101099.47;;;7.09;72.60
50592;BME280;36548;50.506;30.834;2022-11-06T09:19:35;101096.23;;;7.24;72.81
50592;BME280;36548;50.506;30.834;2022-11-06T09:20:44;101100.00;;;7.19;72.61
50592;BME280;36548;50.506;30.834;2022-11-06T09:21:59;101087.87;;;7.33;72.01
50592;BME280;36548;50.506;30.834;2022-11-06T09:23:09;101098.84;;;7.26;71.60
50592;BME280;36548;50.506;30.834;2022-11-06T09:24:24;101089.78;;;7.30;71.65
50592;BME280;36548;50.506;30.834;2022-11-06T09:25:35;101098.42;;;7.13;72.07
50592;BME280;36548;50.506;30.834;2022-11-06T09:26:50;101094.39;;;7.26;71.85
50592;BME280;36548;50.506;30.834;2022-11-06T09:28:17;101101.92;;;7.15;71.70
50592;BME280;36548;50.506;30.834;2022-11-06T09:29:34;101098.77;;;7.27;71.67
50592;BME280;36548;50.506;30.834;2022-11-06T09:30:43;101095.70;;;7.14;71.73
50592;BME280;36548;50.506;30.834;2022-11-06T09:31:58;101093.55;;;7.24;71.75
50592;BME280;36548;50.506;30.834;2022-11-06T09:33:08;101104.59;;;7.15;71.79
50592;BME280;36548;50.506;30.834;2022-11-06T09:34:24;101088.00;;;7.30;71.77
50592;BME280;36548;50.506;30.834;2022-11-06T09:35:33;101094.51;;;7.23;71.46
50592;BME280;36548;50.506;30.834;2022-11-06T09:36:49;101091.41;;;7.34;71.31
50592;BME280;36548;50.506;30.834;2022-11-06T09:38:10;101103.38;;;7.24;71.34
50592;BME280;36548;50.506;30.834;2022-11-06T09:39:20;101114.06;;;7.24;71.32
50592;BME280;36548;50.506;30.834;2022-11-06T09:40:43;101102.03;;;7.36;71.15
50592;BME280;36548;50.506;30.834;2022-11-06T09:41:57;101103.44;;;7.22;71.20
50592;BME280;36548;50.506;30.834;2022-11-06T09:46:29;101091.32;;;7.37;70.98
50592;BME280;36548;50.506;30.834;2022-11-06T09:47:42;101100.59;;;7.27;71.02
50592;BME280;36548;50.506;30.834;2022-11-06T09:49:21;101094.02;;;7.36;71.19
50592;BME280;36548;50.506;30.834;2022-11-06T09:50:34;101108.66;;;7.25;71.54
50592;BME280;36548;50.506;30.834;2022-11-06T09:51:59;101091.13;;;7.42;70.94
50592;BME280;36548;50.506;30.834;2022-11-06T09:53:19;101087.87;;;7.33;70.94
50592;BME280;36548;50.506;30.834;2022-11-06T09:54:55;101091.01;;;7.45;70.74
50592;BME280;36548;50.506;30.834;2022-11-06T09:56:09;101102.16;;;7.32;70.79
50592;BME280;36548;50.506;30.834;2022-11-06T09:58:46;101105.72;;;7.33;70.88
50592;BME280;36548;50.506;30.834;2022-11-06T10:00:04;101088.28;;;7.46;70.72
50592;BME280;36548;50.506;30.834;2022-11-06T10:01:20;101105.66;;;7.34;70.65
50592;BME280;36548;50.506;30.834;2022-11-06T10:02:42;101097.27;;;7.44;70.64
50592;BME280;36548;50.506;30.834;2022-11-06T10:04:00;101091.41;;;7.34;70.78
50592;BME280;36548;50.506;30.834;2022-11-06T10:05:31;101087.48;;;7.44;70.56
50592;BME280;36548;50.506;30.834;2022-11-06T10:06:41;101096.81;;;7.32;70.80
50592;BME280;36548;50.506;30.834;2022-11-06T10:07:58;101081.31;;;7.42;70.78
50592;BME280;36548;50.506;30.834;2022-11-06T10:09:10;101086.25;;;7.29;70.85
50592;BME280;36548;50.506;30.834;2022-11-06T10:10:42;101086.77;;;7.39;70.98
50592;BME280;36548;50.506;30.834;2022-11-06T10:17:53;101082.36;;;7.38;70.73
50592;BME280;36548;50.506;30.834;2022-11-06T10:20:42;101081.16;;;7.47;71.25
50592;BME280;36548;50.506;30.834;2022-11-06T10:23:42;101071.33;;;7.47;70.94
50592;BME280;36548;50.506;30.834;2022-11-06T10:25:04;101071.73;;;7.37;71.09
50592;BME280;36548;50.506;30.834;2022-11-06T10:26:21;101079.16;;;7.52;71.10
50592;BME280;36548;50.506;30.834;2022-11-06T10:34:34;101067.31;;;7.36;71.20
50592;BME280;36548;50.506;30.834;2022-11-06T10:35:48;101075.70;;;7.26;71.33
50592;BME280;36548;50.506;30.834;2022-11-06T10:37:11;101071.45;;;7.44;71.30
50592;BME280;36548;50.506;30.834;2022-11-06T10:38:31;101072.56;;;7.39;71.15
50592;BME280;36548;50.506;30.834;2022-11-06T10:39:47;101059.66;;;7.50;71.03
50592;BME280;36548;50.506;30.834;2022-11-06T10:40:57;101064.36;;;7.43;70.99
50592;BME280;36548;50.506;30.834;2022-11-06T10:42:21;101058.73;;;7.51;70.94
50592;BME280;36548;50.506;30.834;2022-11-06T10:43:49;101060.00;;;7.41;71.01
50592;BME280;36548;50.506;30.834;2022-11-06T10:46:37;101057.78;;;7.52;71.45
50592;BME280;36548;50.506;30.834;2022-11-06T10:48:00;101058.89;;;7.46;71.56
50592;BME280;36548;50.506;30.834;2022-11-06T10:50:33;101060.17;;;7.60;71.31
50592;BME280;36548;50.506;30.834;2022-11-06T10:59:18;101049.22;;;7.66;70.40
50592;BME280;36548;50.506;30.834;2022-11-06T11:00:27;101060.39;;;7.54;70.57
50592;BME280;36548;50.506;30.834;2022-11-06T11:01:49;101052.78;;;7.66;70.59
50592;BME280;36548;50.506;30.834;2022-11-06T11:03:02;101052.28;;;7.57;70.68
50592;BME280;36548;50.506;30.834;2022-11-06T11:04:18;101057.08;;;7.71;70.35
50592;BME280;36548;50.506;30.834;2022-11-06T11:06:50;101045.56;;;7.68;69.97
50592;BME280;36548;50.506;30.834;2022-11-06T11:07:59;101050.47;;;7.57;69.96
50592;BME280;36548;50.506;30.834;2022-11-06T11:09:32;101050.20;;;7.63;69.86
50592;BME280;36548;50.506;30.834;2022-11-06T11:10:42;101037.52;;;7.46;69.92
50592;BME280;36548;50.506;30.834;2022-11-06T11:11:59;101041.30;;;7.41;70.47
50592;BME280;36548;50.506;30.834;2022-11-06T11:13:13;101044.75;;;7.21;70.78